Time;durP1;ratioP1;P1;durP2;ratioP2;P2;SDS_P1;SDS_P2;PMS_P1;PMS_P2;Temp;Humidity;BMP_temperature;BMP_pressure;BME280_temperature;BME280_humidity;BME280_pressure;Samples;Min_cycle;Max_cycle;Signal;HPM_P1;HPM_P2
2024/04/03 00:00:31;;;;;;;1.40;0.30;;;;;;;10.38;83.55;98413.34;4972878;28;20050;-46
2024/04/03 00:02:57;;;;;;;2.05;0.80;;;;;;;10.42;83.60;98409.75;4968159;28;20404;-46
2024/04/03 00:05:23;;;;;;;1.25;0.40;;;;;;;10.43;82.87;98411.44;4964847;28;20510;-45
2024/04/03 00:07:51;;;;;;;1.67;0.57;;;;;;;10.43;82.99;98406.28;5013165;28;20050;-45
2024/04/03 00:10:18;;;;;;;0.73;0.47;;;;;;;10.43;83.03;98411.44;4980974;28;20039;-45
2024/04/03 00:12:45;;;;;;;1.08;0.98;;;;;;;10.43;83.63;98410.63;5008779;28;20435;-45
2024/04/03 00:15:12;;;;;;;0.77;0.63;;;;;;;10.43;82.99;98408.88;4977990;28;20042;-47
2024/04/03 00:17:38;;;;;;;1.17;0.60;;;;;;;10.37;82.89;98412.47;4980925;28;20055;-48
2024/04/03 00:20:05;;;;;;;0.93;0.50;;;;;;;10.41;83.34;98397.72;5018654;28;20062;-45
2024/04/03 00:22:32;;;;;;;1.13;1.02;;;;;;;10.40;83.25;98406.34;4977337;28;20080;-46
2024/04/03 00:24:58;;;;;;;0.75;0.50;;;;;;;10.38;83.19;98413.34;4977701;28;20416;-45
2024/04/03 00:27:24;;;;;;;2.97;0.50;;;;;;;10.42;83.72;98409.75;4972497;28;20050;-47
2024/04/03 00:29:51;;;;;;;0.98;0.63;;;;;;;10.46;83.22;98415.72;4971590;28;20046;-48
2024/04/03 00:32:17;;;;;;;2.97;0.80;;;;;;;10.47;82.64;98415.69;4985426;28;20069;-45
2024/04/03 00:34:44;;;;;;;3.30;0.95;;;;;;;10.43;83.13;98406.28;4978745;28;20050;-45
2024/04/03 00:37:10;;;;;;;2.58;0.50;;;;;;;10.43;82.96;98408.88;4974817;28;20035;-46
2024/04/03 00:39:36;;;;;;;1.10;0.70;;;;;;;10.46;82.98;98398.47;4977951;28;20078;-49
2024/04/03 00:42:03;;;;;;;1.20;0.68;;;;;;;10.46;83.01;98401.06;4982911;28;20042;-45
2024/04/03 00:44:31;;;;;;;0.98;0.57;;;;;;;10.46;83.30;98389.84;4978753;28;20779;-47
2024/04/03 00:47:01;;;;;;;1.60;0.45;;;;;;;10.47;82.29;98387.22;5011468;28;20046;-45
2024/04/03 00:49:28;;;;;;;1.70;0.57;;;;;;;10.47;82.92;98392.38;5014368;28;20416;-45
2024/04/03 00:51:54;;;;;;;2.20;0.90;;;;;;;10.45;83.22;98378.66;4980229;28;20422;-47
2024/04/03 00:54:22;;;;;;;0.57;0.43;;;;;;;10.44;83.27;98389.88;4984459;28;20057;-45
2024/04/03 00:56:48;;;;;;;1.58;0.82;;;;;;;10.43;83.86;98385.56;4984597;28;20096;-46
2024/04/03 00:59:16;;;;;;;1.60;1.20;;;;;;;10.45;83.00;98376.06;4979719;28;20049;-45
2024/04/03 01:01:41;;;;;;;1.55;0.75;;;;;;;10.41;83.24;98371.84;5014977;28;20058;-48
2024/04/03 01:04:07;;;;;;;2.00;1.23;;;;;;;10.46;83.29;98370.00;4980235;28;20104;-47
2024/04/03 01:06:33;;;;;;;1.08;0.60;;;;;;;10.41;84.20;98366.66;4976963;28;20058;-49
2024/04/03 01:08:58;;;;;;;2.20;0.85;;;;;;;10.45;83.17;98368.31;4982931;28;20749;-45
2024/04/03 01:11:24;;;;;;;1.35;0.70;;;;;;;10.47;83.38;98366.50;4977940;28;20061;-46
2024/04/03 01:13:50;;;;;;;0.90;0.55;;;;;;;10.51;82.67;98357.75;4983692;28;20055;-46
2024/04/03 01:16:16;;;;;;;1.73;1.20;;;;;;;10.52;82.43;98363.78;4982653;28;20046;-48
2024/04/03 01:18:41;;;;;;;1.02;0.63;;;;;;;10.52;82.45;98349.13;4977074;28;20126;-47
2024/04/03 01:21:07;;;;;;;2.35;1.10;;;;;;;10.56;82.31;98349.84;4975410;28;20050;-46
2024/04/03 01:23:33;;;;;;;1.55;0.82;;;;;;;10.52;83.34;98353.44;4978200;28;20153;-48
2024/04/03 01:25:58;;;;;;;4.47;1.00;;;;;;;10.54;82.70;98343.88;4973990;28;20062;-55
2024/04/03 01:28:24;;;;;;;4.40;0.63;;;;;;;10.56;82.86;98338.63;4975155;28;20059;-47
2024/04/03 01:30:50;;;;;;;2.42;0.85;;;;;;;10.57;83.09;98330.81;4980139;28;20115;-47
2024/04/03 01:33:16;;;;;;;1.70;0.63;;;;;;;10.56;82.44;98328.28;4999137;28;20130;-48
2024/04/03 01:35:41;;;;;;;2.50;1.92;;;;;;;10.58;82.79;98321.34;4984832;28;20669;-49
2024/04/03 01:38:07;;;;;;;5.05;0.65;;;;;;;10.61;81.83;98321.25;4963215;28;20172;-45
2024/04/03 01:40:33;;;;;;;1.52;0.77;;;;;;;10.62;82.86;98318.63;4982601;28;20050;-46
2024/04/03 01:42:59;;;;;;;2.05;0.80;;;;;;;10.59;82.94;98323.03;4976918;28;20058;-47
2024/04/03 01:45:24;;;;;;;2.78;0.73;;;;;;;10.54;82.80;98316.25;4982580;28;20110;-46
2024/04/03 01:47:50;;;;;;;3.67;1.15;;;;;;;10.57;82.86;98324.81;4982549;28;20468;-46
2024/04/03 01:50:20;;;;;;;2.78;1.35;;;;;;;10.60;83.00;98319.56;4993878;28;20054;-47
2024/04/03 01:52:46;;;;;;;1.35;0.68;;;;;;;10.54;82.90;98311.06;5003610;28;20062;-46
2024/04/03 01:55:12;;;;;;;4.55;1.15;;;;;;;10.56;82.90;98307.56;4977439;28;20043;-48
2024/04/03 01:57:37;;;;;;;2.75;0.80;;;;;;;10.51;83.93;98310.31;4970998;28;20054;-45
2024/04/03 02:00:04;;;;;;;2.63;0.93;;;;;;;10.48;83.17;98300.91;4979327;28;20423;-45
2024/04/03 02:02:30;;;;;;;2.13;0.80;;;;;;;10.50;84.00;98299.13;4985687;28;20042;-50
2024/04/03 02:04:55;;;;;;;2.15;0.75;;;;;;;10.48;83.45;98297.47;5013209;28;20068;-46
2024/04/03 02:07:21;;;;;;;3.30;1.02;;;;;;;10.54;82.86;98300.72;5017233;28;20140;-45
2024/04/03 02:09:46;;;;;;;5.28;1.10;;;;;;;10.56;83.77;98297.22;4982615;28;20073;-46
2024/04/03 02:12:12;;;;;;;2.25;0.90;;;;;;;10.60;82.88;98298.84;4974840;28;20077;-46
2024/04/03 02:14:38;;;;;;;4.60;1.20;;;;;;;10.54;83.40;98285.19;4977397;28;20411;-47
2024/04/03 02:17:04;;;;;;;2.65;0.80;;;;;;;10.56;83.94;98286.88;4978743;28;20133;-50
2024/04/03 02:19:30;;;;;;;1.13;0.52;;;;;;;10.47;83.50;98288.84;4970111;28;20121;-48
2024/04/03 02:21:55;;;;;;;2.85;0.80;;;;;;;10.51;83.92;98282.69;4977360;28;20057;-46
2024/04/03 02:24:21;;;;;;;5.53;1.25;;;;;;;10.51;83.87;98277.50;4962705;28;20106;-49
2024/04/03 02:26:47;;;;;;;2.80;1.23;;;;;;;10.52;83.53;98276.63;4980936;28;20081;-49
2024/04/03 02:29:14;;;;;;;3.63;0.95;;;;;;;10.52;84.13;98276.63;4973008;28;20133;-47
2024/04/03 02:31:40;;;;;;;2.75;0.80;;;;;;;10.49;84.42;98275.88;4977913;28;20069;-50
2024/04/03 02:34:08;;;;;;;1.05;0.88;;;;;;;10.46;83.47;98276.81;4968289;28;20054;-49
2024/04/03 02:36:34;;;;;;;4.53;1.10;;;;;;;10.47;84.04;98278.50;4998103;28;20053;-50
2024/04/03 02:39:00;;;;;;;3.72;0.95;;;;;;;10.51;83.12;98274.91;4976004;28;20455;-46
2024/04/03 02:41:25;;;;;;;2.90;1.10;;;;;;;10.50;84.46;98278.41;4977745;28;20046;-47
2024/04/03 02:43:51;;;;;;;1.92;0.95;;;;;;;10.50;84.19;98273.22;5008306;28;20103;-49
2024/04/03 02:46:17;;;;;;;3.40;1.00;;;;;;;10.49;83.75;98261.19;4983969;28;20051;-46
2024/04/03 02:48:43;;;;;;;2.85;1.52;;;;;;;10.48;84.59;98262.09;4973460;28;20495;-47
2024/04/03 02:51:10;;;;;;;3.60;0.60;;;;;;;10.50;84.59;98260.28;4976992;28;20061;-47
2024/04/03 02:53:36;;;;;;;2.13;0.70;;;;;;;10.53;83.30;98262.78;4983894;28;20175;-47
2024/04/03 02:56:03;;;;;;;2.53;1.27;;;;;;;10.57;84.30;98266.09;5008516;28;20050;-47
2024/04/03 02:58:29;;;;;;;4.95;1.23;;;;;;;10.55;84.17;98260.16;4984962;28;20058;-45
2024/04/03 03:03:37;;;;;;;3.20;1.20;;;;;;;10.58;83.81;98254.03;5054561;28;20403;-48
2024/04/03 03:06:04;;;;;;;4.70;1.17;;;;;;;10.57;83.50;98252.34;5035731;28;20102;-48
2024/04/03 03:08:32;;;;;;;4.60;1.10;;;;;;;10.53;84.71;98247.25;5032208;28;20494;-45
2024/04/03 03:10:59;;;;;;;3.85;0.93;;;;;;;10.58;83.83;98243.66;5046975;28;20053;-46
2024/04/03 03:13:26;;;;;;;4.78;1.52;;;;;;;10.60;83.64;98236.72;5033107;28;20048;-45
2024/04/03 03:15:57;;;;;;;5.35;1.92;;;;;;;10.56;83.63;98232.50;5031837;28;20513;-46
2024/04/03 03:18:25;;;;;;;4.53;0.93;;;;;;;10.60;83.51;98236.72;5039256;28;20071;-45
2024/04/03 03:20:51;;;;;;;4.05;1.25;;;;;;;10.59;83.18;98237.59;5050541;28;20056;-48
2024/04/03 03:23:18;;;;;;;2.17;1.23;;;;;;;10.62;83.94;98237.50;5038623;28;20049;-46
2024/04/03 03:25:47;;;;;;;3.95;1.58;;;;;;;10.59;83.27;98232.41;5041420;28;20061;-47
2024/04/03 03:28:14;;;;;;;5.10;1.70;;;;;;;10.58;84.61;98228.13;5056109;28;20471;-47
2024/04/03 03:30:45;;;;;;;1.55;0.80;;;;;;;10.57;83.73;98221.28;5047222;28;20037;-46
2024/04/03 03:33:10;;;;;;;;;;;;;;;10.46;84.94;98230.22;5039535;28;20049;-46
2024/04/03 03:35:36;;;;;;;4.55;1.77;;;;;;;10.58;84.19;98228.13;5040412;28;20391;-47
2024/04/03 03:38:01;;;;;;;4.25;1.10;;;;;;;10.58;84.15;98213.47;5055706;28;20059;-48
2024/04/03 03:40:27;;;;;;;4.82;0.85;;;;;;;10.59;84.04;98211.69;5056429;28;20056;-47
2024/04/03 03:42:53;;;;;;;5.55;1.13;;;;;;;10.54;84.00;98211.88;5040776;28;20129;-47
2024/04/03 03:45:20;;;;;;;2.33;1.05;;;;;;;10.52;85.19;98211.06;5037131;28;20567;-46
2024/04/03 03:47:47;;;;;;;3.13;2.13;;;;;;;10.43;85.70;98206.97;5058673;28;20390;-47
2024/04/03 03:52:59;;;;;;;4.43;2.45;;;;;;;10.56;84.28;98206.63;5024760;28;20355;-54
2024/04/03 03:55:29;;;;;;;3.38;1.05;;;;;;;10.53;85.16;98200.66;5057582;28;20110;-47
2024/04/03 03:57:56;;;;;;;1.35;0.68;;;;;;;10.56;84.61;98201.44;5040305;28;20041;-47
2024/04/03 04:00:22;;;;;;;1.73;0.90;;;;;;;10.52;85.25;98195.53;5049210;28;21004;-47
2024/04/03 04:02:48;;;;;;;2.05;0.73;;;;;;;10.57;84.99;98190.22;5039314;28;20069;-51
2024/04/03 04:05:13;;;;;;;2.88;1.75;;;;;;;10.56;85.00;98193.66;5058677;28;20074;-49
2024/04/03 04:07:39;;;;;;;1.20;0.60;;;;;;;10.46;85.65;98188.81;5060417;28;20056;-49
2024/04/03 04:10:05;;;;;;;1.98;0.93;;;;;;;10.47;85.69;98185.31;5056879;28;20052;-46
2024/04/03 04:12:31;;;;;;;0.77;0.50;;;;;;;10.44;86.11;98188.00;5062611;28;20484;-47
2024/04/03 04:14:57;;;;;;;1.27;0.90;;;;;;;10.49;84.90;98180.94;5045094;28;20045;-46
2024/04/03 04:17:22;;;;;;;3.00;1.60;;;;;;;10.51;85.40;98180.91;5046910;28;20055;-46
2024/04/03 04:19:50;;;;;;;4.13;1.33;;;;;;;10.52;85.20;98182.59;5051673;28;20099;-47
2024/04/03 04:22:16;;;;;;;4.72;1.35;;;;;;;10.51;84.90;98176.56;5050121;28;20056;-47
2024/04/03 04:24:44;;;;;;;3.10;1.30;;;;;;;10.53;85.53;98174.78;5044056;28;20048;-45
2024/04/03 04:27:12;;;;;;;1.20;0.93;;;;;;;10.56;85.48;98170.38;5032824;28;20044;-47
2024/04/03 04:29:40;;;;;;;2.92;0.88;;;;;;;10.56;85.37;98168.66;5030577;28;20052;-46
2024/04/03 04:32:07;;;;;;;2.72;0.85;;;;;;;10.54;85.19;98173.88;5021818;28;20320;-46
2024/04/03 04:34:32;;;;;;;4.30;1.20;;;;;;;10.57;85.55;98172.09;5031366;28;20109;-47
2024/04/03 04:36:58;;;;;;;1.95;1.02;;;;;;;10.59;84.69;98159.94;5056075;28;20048;-45
2024/04/03 04:39:24;;;;;;;2.47;1.10;;;;;;;10.54;85.07;98166.09;5039583;28;20076;-48
2024/04/03 04:41:52;;;;;;;3.95;1.70;;;;;;;10.61;84.90;98160.72;5037685;28;20055;-46
2024/04/03 04:44:19;;;;;;;5.07;1.52;;;;;;;10.60;84.66;98161.63;5050059;28;20056;-45
2024/04/03 04:46:50;;;;;;;2.72;1.00;;;;;;;10.59;84.86;98159.94;5036137;28;20053;-47
2024/04/03 04:49:16;;;;;;;1.23;1.13;;;;;;;10.56;84.92;98158.28;5043797;28;20045;-47
2024/04/03 04:51:43;;;;;;;2.97;1.38;;;;;;;10.62;85.30;98155.50;5040600;28;20048;-46
2024/04/03 04:54:09;;;;;;;6.75;1.88;;;;;;;10.65;85.17;98151.97;5018186;28;20046;-45
2024/04/03 04:56:35;;;;;;;4.68;1.48;;;;;;;10.65;84.54;98147.66;5039344;28;20052;-47
2024/04/03 04:59:02;;;;;;;5.38;1.75;;;;;;;10.64;84.86;98145.09;5038068;28;20061;-46
2024/04/03 05:01:28;;;;;;;3.78;1.00;;;;;;;10.60;85.24;98139.16;5041327;28;20052;-46
2024/04/03 05:03:53;;;;;;;3.50;1.33;;;;;;;10.62;85.32;98141.72;5038105;28;20048;-47
2024/04/03 05:06:19;;;;;;;3.83;1.25;;;;;;;10.63;85.93;98140.81;5035567;28;20466;-47
2024/04/03 05:08:45;;;;;;;4.57;1.08;;;;;;;10.59;86.15;98149.56;5034241;28;20506;-46
2024/04/03 05:11:11;;;;;;;2.38;1.38;;;;;;;10.59;85.86;98142.66;5032507;28;20048;-46
2024/04/03 05:13:37;;;;;;;6.68;1.23;;;;;;;10.62;85.72;98147.75;5035480;28;20048;-46
2024/04/03 05:18:43;;;;;;;2.47;2.15;;;;;;;10.66;85.40;98135.53;5019126;27;20417;-46
2024/04/03 05:21:08;;;;;;;2.47;1.90;;;;;;;10.62;85.74;98136.53;5002220;28;20132;-47
2024/04/03 05:23:34;;;;;;;2.05;1.83;;;;;;;10.65;85.41;98131.25;5001220;28;20750;-47
2024/04/03 05:26:02;;;;;;;1.77;1.67;;;;;;;10.65;85.76;98128.66;5005349;28;20132;-47
2024/04/03 05:28:30;;;;;;;2.22;2.10;;;;;;;10.64;85.55;98124.41;5004760;28;20052;-46
2024/04/03 05:31:02;;;;;;;4.25;2.30;;;;;;;10.65;85.78;98131.25;5001399;28;20085;-46
2024/04/03 05:33:27;;;;;;;1.90;1.73;;;;;;;10.66;84.92;98127.75;5006675;28;20053;-46
2024/04/03 05:35:55;;;;;;;4.95;2.63;;;;;;;10.66;85.38;98122.59;5002186;28;20054;-47
2024/04/03 05:38:21;;;;;;;1.98;1.85;;;;;;;10.64;85.89;98122.63;4998074;28;20050;-45
2024/04/03 05:40:49;;;;;;;7.75;2.88;;;;;;;10.67;85.15;98124.25;4997438;28;20467;-45
2024/04/03 05:43:15;;;;;;;2.50;2.30;;;;;;;10.67;85.18;98124.25;4987760;28;20049;-45
2024/04/03 05:45:40;;;;;;;3.50;1.20;;;;;;;10.69;85.81;98119.91;5000709;28;20407;-46
2024/04/03 05:48:07;;;;;;;3.33;2.38;;;;;;;10.72;85.53;98117.22;4996786;28;20133;-47
2024/04/03 05:50:33;;;;;;;3.17;2.25;;;;;;;10.68;85.89;98115.63;4978948;28;20061;-46
2024/04/03 05:52:59;;;;;;;3.35;2.72;;;;;;;10.71;85.94;98114.66;4996628;28;20054;-44
2024/04/03 05:55:24;;;;;;;2.22;1.38;;;;;;;10.69;85.70;98101.78;4994872;28;20463;-47
2024/04/03 05:57:50;;;;;;;4.30;2.28;;;;;;;10.73;85.52;98102.50;4995832;28;20046;-48
2024/04/03 06:00:16;;;;;;;1.98;1.83;;;;;;;10.70;85.29;98103.44;4978727;28;20050;-45
2024/04/03 06:02:42;;;;;;;2.72;1.70;;;;;;;10.61;85.94;98098.59;4994540;28;20134;-45
2024/04/03 06:05:08;;;;;;;1.70;1.60;;;;;;;10.67;86.57;98093.19;4994956;28;20058;-46
2024/04/03 06:07:34;;;;;;;2.78;2.38;;;;;;;10.63;86.08;98089.03;4995621;28;20559;-44
2024/04/03 06:10:01;;;;;;;2.55;2.35;;;;;;;10.65;86.35;98105.38;4995509;28;20050;-46
2024/04/03 06:12:26;;;;;;;2.45;2.03;;;;;;;10.70;85.96;98098.28;4997080;28;20100;-45
2024/04/03 06:14:52;;;;;;;1.27;1.08;;;;;;;10.71;85.38;98092.19;4990959;28;20443;-47
2024/04/03 06:17:18;;;;;;;3.00;2.25;;;;;;;10.76;85.15;98087.72;4984382;28;20538;-46
2024/04/03 06:19:43;;;;;;;3.70;1.90;;;;;;;10.80;85.56;98084.13;4997673;28;20080;-47
2024/04/03 06:22:09;;;;;;;4.57;2.95;;;;;;;10.85;84.48;98088.28;4995421;28;20050;-47
2024/04/03 06:24:35;;;;;;;2.28;1.50;;;;;;;10.84;84.35;98091.78;4993217;28;20057;-47
2024/04/03 06:27:00;;;;;;;2.30;1.75;;;;;;;10.83;84.76;98093.50;4996632;28;20042;-47
2024/04/03 06:29:26;;;;;;;3.00;1.83;;;;;;;10.82;85.27;98091.84;4985568;28;20053;-46
2024/04/03 06:31:52;;;;;;;4.25;2.08;;;;;;;10.82;84.67;98086.66;4983314;28;20101;-49
2024/04/03 06:34:18;;;;;;;2.75;2.33;;;;;;;10.88;83.96;98085.59;4982045;28;20054;-51
2024/04/03 06:36:44;;;;;;;4.40;4.03;;;;;;;10.89;84.82;98085.53;4981747;28;20050;-47
2024/04/03 06:39:10;;;;;;;4.05;1.63;;;;;;;10.93;84.88;98088.84;4980703;28;20136;-49
2024/04/03 06:41:35;;;;;;;3.22;1.60;;;;;;;11.01;84.65;98096.38;4979345;28;20050;-47
2024/04/03 06:44:01;;;;;;;2.88;2.05;;;;;;;11.05;84.42;98092.75;4982799;28;20062;-49
2024/04/03 06:46:27;;;;;;;3.10;2.03;;;;;;;11.01;84.84;98089.41;4980440;28;20552;-47
2024/04/03 06:48:53;;;;;;;1.70;1.52;;;;;;;11.00;84.45;98085.16;4983749;28;20134;-48
2024/04/03 06:51:19;;;;;;;1.83;0.68;;;;;;;11.05;84.09;98085.81;4981987;28;20482;-45
2024/04/03 06:53:45;;;;;;;3.80;1.65;;;;;;;11.09;84.14;98091.75;4991301;28;20054;-46
2024/04/03 06:56:10;;;;;;;1.75;1.55;;;;;;;11.12;84.30;98093.38;4982649;28;20112;-47
2024/04/03 06:58:39;;;;;;;4.35;2.17;;;;;;;11.15;83.14;98088.09;4981267;28;20065;-46
2024/04/03 07:01:05;;;;;;;8.60;1.63;;;;;;;11.15;83.92;98077.72;4965685;28;20050;-45
2024/04/03 07:03:32;;;;;;;7.50;1.80;;;;;;;11.18;83.64;98094.00;4981368;28;20050;-45
2024/04/03 07:05:59;;;;;;;1.20;1.05;;;;;;;11.21;83.88;98098.22;4981036;28;20042;-45
2024/04/03 07:08:25;;;;;;;3.05;1.75;;;;;;;11.23;82.83;98091.25;4979506;28;20876;-46
2024/04/03 07:10:51;;;;;;;2.15;0.65;;;;;;;11.19;82.99;98094.84;5000024;28;21441;-46
2024/04/03 07:13:17;;;;;;;2.47;2.03;;;;;;;11.23;82.58;98086.06;4979692;28;20051;-45
2024/04/03 07:15:48;;;;;;;5.10;2.67;;;;;;;11.26;82.26;98093.72;4979980;28;20298;-47
2024/04/03 07:18:14;;;;;;;4.25;1.67;;;;;;;11.28;81.53;98091.06;4980853;28;20054;-50
2024/04/03 07:20:40;;;;;;;4.35;1.95;;;;;;;11.30;81.17;98097.88;4980264;28;20042;-48
2024/04/03 07:23:06;;;;;;;7.03;1.77;;;;;;;11.38;81.58;98083.81;4964120;28;20503;-46
2024/04/03 07:25:32;;;;;;;5.18;2.28;;;;;;;11.41;80.88;98100.06;4965135;28;20076;-45
2024/04/03 07:28:09;;;;;;;5.18;1.88;;;;;;;11.39;80.54;98090.66;4980707;28;20065;-48
2024/04/03 07:30:35;;;;;;;4.78;2.55;;;;;;;11.39;80.60;98090.66;4980408;28;20051;-46
2024/04/03 07:33:01;;;;;;;3.72;1.77;;;;;;;11.46;80.12;98092.13;4981053;28;20117;-46
2024/04/03 07:35:26;;;;;;;2.55;1.80;;;;;;;11.42;79.07;98091.38;4981257;28;20049;-48
2024/04/03 07:37:54;;;;;;;3.85;1.48;;;;;;;11.44;79.09;98088.72;4980409;28;20802;-45
2024/04/03 07:40:19;;;;;;;1.13;1.02;;;;;;;11.44;78.38;98091.31;4979993;28;20065;-48
2024/04/03 07:42:47;;;;;;;6.45;2.40;;;;;;;11.49;77.99;98092.00;4979900;28;21324;-47
2024/04/03 07:45:12;;;;;;;1.85;1.17;;;;;;;11.90;78.09;98100.81;4977204;28;20105;-45
2024/04/03 07:47:38;;;;;;;2.55;1.55;;;;;;;12.18;78.51;98095.41;4980359;28;20046;-47
2024/04/03 07:50:05;;;;;;;2.20;2.05;;;;;;;12.90;77.50;98097.59;4987467;28;20129;-47
2024/04/03 07:52:32;;;;;;;5.22;1.80;;;;;;;13.78;75.61;98091.97;4967029;28;20069;-47
2024/04/03 07:54:58;;;;;;;2.70;1.85;;;;;;;14.52;74.55;98099.69;4984456;28;20093;-46
2024/04/03 07:57:24;;;;;;;2.28;1.58;;;;;;;14.46;72.94;98105.22;4965379;28;20136;-46
2024/04/03 07:59:49;;;;;;;2.75;1.42;;;;;;;13.84;71.32;98107.31;4978123;28;20060;-47
2024/04/03 08:02:15;;;;;;;2.15;1.88;;;;;;;13.45;71.82;98103.00;4985301;28;20046;-45
2024/04/03 08:04:41;;;;;;;1.45;1.10;;;;;;;12.92;73.20;98089.75;4982639;28;20068;-45
2024/04/03 08:07:08;;;;;;;1.38;1.27;;;;;;;12.72;74.70;98091.47;4978221;28;20042;-48
2024/04/03 08:09:35;;;;;;;2.20;2.05;;;;;;;12.47;74.44;98079.53;4979542;28;20054;-48
2024/04/03 08:12:01;;;;;;;1.25;1.25;;;;;;;12.62;74.76;98082.38;4979590;28;20051;-47
2024/04/03 08:14:27;;;;;;;2.65;1.73;;;;;;;13.44;74.82;98093.53;4977270;28;20475;-46
2024/04/03 08:16:54;;;;;;;1.60;1.50;;;;;;;14.43;73.15;98094.97;4982469;28;20078;-47
2024/04/03 08:19:20;;;;;;;1.55;1.45;;;;;;;15.20;71.01;98094.56;4983056;28;20068;-46
2024/04/03 08:21:48;;;;;;;3.25;1.38;;;;;;;15.58;68.13;98104.69;4980537;28;20047;-47
2024/04/03 08:24:14;;;;;;;3.40;1.65;;;;;;;15.38;67.46;98108.38;4967063;28;20051;-48
2024/04/03 08:26:40;;;;;;;4.07;1.90;;;;;;;15.00;68.15;98099.06;4981392;28;20055;-45
2024/04/03 08:29:06;;;;;;;2.55;1.58;;;;;;;14.46;68.05;98102.63;4967146;28;20058;-47
2024/04/03 08:31:32;;;;;;;1.73;1.52;;;;;;;14.22;68.90;98098.53;4967176;28;20109;-47
2024/04/03 08:33:58;;;;;;;2.60;1.40;;;;;;;14.21;69.23;98107.28;4984889;28;20045;-49
2024/04/03 08:36:24;;;;;;;1.92;0.50;;;;;;;14.10;69.12;98107.81;4982830;28;20718;-46
2024/04/03 08:38:50;;;;;;;2.58;1.40;;;;;;;14.00;69.44;98103.97;4973239;28;20061;-47
2024/04/03 08:41:16;;;;;;;3.65;1.80;;;;;;;13.95;69.29;98109.38;4979082;28;20050;-52
2024/04/03 08:43:42;;;;;;;4.75;1.83;;;;;;;13.74;69.19;98109.50;4985450;28;20096;-46
2024/04/03 08:46:09;;;;;;;3.08;1.85;;;;;;;13.73;69.54;98106.97;4983080;28;20504;-46
2024/04/03 08:48:38;;;;;;;2.70;2.28;;;;;;;13.59;69.98;98108.47;4979832;28;20046;-48
2024/04/03 08:51:05;;;;;;;4.30;2.30;;;;;;;13.44;70.73;98106.53;4963468;28;20088;-46
2024/04/03 08:53:31;;;;;;;2.17;1.95;;;;;;;13.33;70.46;98105.25;4974990;28;20889;-47
2024/04/03 08:55:57;;;;;;;2.53;1.95;;;;;;;13.16;71.11;98112.97;4988765;28;20054;-47
2024/04/03 08:58:23;;;;;;;1.70;1.60;;;;;;;12.99;71.76;98111.97;4989684;28;20626;-47
2024/04/03 09:00:50;;;;;;;4.53;2.03;;;;;;;12.87;71.54;98109.91;4983766;28;20050;-47
2024/04/03 09:03:16;;;;;;;2.75;1.85;;;;;;;12.85;71.82;98109.97;4973163;28;20050;-47
2024/04/03 09:05:42;;;;;;;3.45;1.77;;;;;;;12.84;71.96;98114.31;4967646;28;20100;-48
2024/04/03 09:08:09;;;;;;;2.70;2.08;;;;;;;12.81;71.91;98113.59;4973922;28;20053;-50
2024/04/03 09:10:43;;;;;;;4.57;2.67;;;;;;;12.73;72.19;98111.31;4985996;28;20054;-46
2024/04/03 09:13:09;;;;;;;2.60;2.00;;;;;;;12.73;72.69;98113.94;4967281;28;20053;-48
2024/04/03 09:15:35;;;;;;;1.90;1.73;;;;;;;12.65;72.37;98106.47;4985300;28;20058;-48
2024/04/03 09:18:03;;;;;;;2.67;1.77;;;;;;;12.54;72.49;98106.09;4983585;28;20046;-51
2024/04/03 09:20:28;;;;;;;2.47;1.42;;;;;;;12.57;73.53;98106.78;4981109;28;20054;-48
2024/04/03 09:22:56;;;;;;;3.47;1.98;;;;;;;12.80;73.10;98109.34;4977822;28;20047;-45
2024/04/03 09:25:26;;;;;;;2.50;2.25;;;;;;;13.13;73.88;98113.13;4983715;28;20058;-49
2024/04/03 09:28:02;;;;;;;2.50;1.83;;;;;;;13.28;73.96;98115.03;4976901;28;20047;-47
2024/04/03 09:30:29;;;;;;;3.08;1.75;;;;;;;13.39;73.17;98113.69;4978953;28;20825;-46
2024/04/03 09:32:57;;;;;;;2.05;1.65;;;;;;;13.32;73.38;98111.38;4967411;28;20051;-48
2024/04/03 09:35:27;;;;;;;3.20;2.35;;;;;;;13.35;72.75;98119.03;4983478;28;20050;-47
2024/04/03 09:37:52;;;;;;;;;;;;;;;13.12;73.40;98122.66;4962594;28;20054;-47
2024/04/03 09:40:22;;;;;;;2.35;1.75;;;;;;;13.16;73.60;98115.56;4983802;28;19925;-47
2024/04/03 09:42:51;;;;;;;1.33;1.25;;;;;;;13.09;73.34;98118.44;4996359;28;20046;-46
2024/04/03 09:45:17;;;;;;;1.70;1.60;;;;;;;13.07;73.57;98115.06;4980320;28;20046;-47
2024/04/03 09:47:45;;;;;;;2.15;1.83;;;;;;;12.99;73.52;98119.75;4983860;28;20103;-48
2024/04/03 09:50:13;;;;;;;0.70;0.52;;;;;;;13.01;73.27;98117.94;4984840;28;20442;-49
2024/04/03 09:52:40;;;;;;;2.20;1.98;;;;;;;12.96;74.53;98119.88;4986021;28;20077;-47
2024/04/03 09:55:06;;;;;;;1.67;1.58;;;;;;;12.91;74.78;98116.66;4977958;28;20058;-49
2024/04/03 09:57:32;;;;;;;1.38;1.30;;;;;;;12.77;75.12;98120.66;4983899;28;20051;-47
2024/04/03 09:59:59;;;;;;;2.00;1.60;;;;;;;12.74;74.16;98115.63;4978041;28;20050;-48
2024/04/03 10:02:25;;;;;;;1.55;1.45;;;;;;;12.72;75.33;98114.84;4983400;28;20050;-46
2024/04/03 10:04:51;;;;;;;1.80;1.70;;;;;;;12.77;75.27;98110.28;4986269;28;20447;-46
2024/04/03 10:07:17;;;;;;;1.15;1.15;;;;;;;12.85;75.04;98110.81;4986473;28;20063;-46
2024/04/03 10:09:43;;;;;;;1.27;1.17;;;;;;;12.90;75.32;98112.38;4983701;28;20058;-47
2024/04/03 10:12:17;;;;;;;2.15;1.67;;;;;;;12.99;75.17;98117.16;4986481;28;20126;-46
2024/04/03 10:14:43;;;;;;;1.75;1.65;;;;;;;13.06;75.42;98118.59;4971611;28;20046;-48
2024/04/03 10:17:16;;;;;;;1.83;1.73;;;;;;;13.12;75.59;98117.47;4983419;28;20065;-50
2024/04/03 10:19:42;;;;;;;1.83;1.73;;;;;;;13.11;75.55;98116.59;4985612;28;20498;-51
2024/04/03 10:22:14;;;;;;;1.35;1.25;;;;;;;13.04;75.28;98112.59;4988711;28;20053;-48
2024/04/03 10:24:43;;;;;;;2.15;2.03;;;;;;;13.01;74.84;98115.34;4979405;28;20051;-53
2024/04/03 10:27:09;;;;;;;2.50;1.38;;;;;;;12.92;75.36;98116.59;4986785;28;20050;-50
2024/04/03 10:29:36;;;;;;;2.53;1.85;;;;;;;12.91;75.06;98116.66;4980242;28;20436;-46
2024/04/03 10:32:02;;;;;;;2.10;1.80;;;;;;;12.84;75.84;98109.09;4968567;28;20083;-48
2024/04/03 10:34:27;;;;;;;1.80;1.42;;;;;;;12.79;75.66;98111.06;4982998;28;20054;-50
2024/04/03 10:36:53;;;;;;;1.75;1.65;;;;;;;12.81;76.45;98106.66;4977365;28;20146;-45
2024/04/03 10:39:19;;;;;;;1.60;1.50;;;;;;;12.74;76.60;98113.03;4983353;28;20050;-49
2024/04/03 10:41:45;;;;;;;0.85;0.85;;;;;;;12.84;76.13;98100.50;4985904;28;20724;-52
2024/04/03 10:44:11;;;;;;;1.88;1.77;;;;;;;12.81;76.76;98113.59;4970989;28;20061;-48
2024/04/03 10:46:37;;;;;;;1.90;1.80;;;;;;;12.80;77.45;98115.34;4980094;28;20069;-51
2024/04/03 10:49:04;;;;;;;2.10;1.08;;;;;;;12.83;77.62;98111.78;4977898;28;20046;-47
2024/04/03 10:51:31;;;;;;;2.75;1.77;;;;;;;12.89;76.98;98113.25;4978954;28;20051;-46
2024/04/03 10:53:57;;;;;;;3.53;2.45;;;;;;;12.94;76.54;98119.13;4981345;28;20046;-48
2024/04/03 10:56:25;;;;;;;2.63;2.42;;;;;;;13.00;75.68;98113.63;4981272;28;20057;-47
2024/04/03 10:58:50;;;;;;;2.08;1.73;;;;;;;12.92;76.39;98120.94;4966377;28;20061;-46
2024/04/03 11:01:16;;;;;;;1.67;1.58;;;;;;;13.00;75.80;98116.25;4983327;28;20050;-51
2024/04/03 11:03:42;;;;;;;1.02;0.68;;;;;;;12.96;76.73;98119.88;4980744;28;20287;-50
2024/04/03 11:06:09;;;;;;;1.55;1.45;;;;;;;13.01;76.76;98117.94;4984550;28;20051;-49
2024/04/03 11:08:36;;;;;;;2.05;1.85;;;;;;;12.91;76.21;98121.84;4982468;28;20051;-49
2024/04/03 11:11:03;;;;;;;1.50;1.40;;;;;;;12.91;76.11;98130.50;4978262;28;20054;-47
2024/04/03 11:13:29;;;;;;;1.80;1.70;;;;;;;12.79;76.80;98115.41;4985721;28;20066;-51
2024/04/03 11:15:55;;;;;;;2.15;2.05;;;;;;;12.68;77.78;98128.88;4986225;28;20128;-47
2024/04/03 11:18:21;;;;;;;2.38;2.28;;;;;;;12.76;77.51;98131.97;4979920;28;20046;-47
2024/04/03 11:20:48;;;;;;;2.22;1.65;;;;;;;12.83;77.38;98145.53;4981284;28;20137;-46
2024/04/03 11:23:14;;;;;;;2.35;2.22;;;;;;;12.87;78.21;98143.69;4963463;28;20097;-47
2024/04/03 11:25:40;;;;;;;3.03;1.77;;;;;;;12.94;77.69;98145.09;5000814;28;20058;-48
2024/04/03 11:28:05;;;;;;;1.55;1.45;;;;;;;12.91;77.63;98150.44;4967447;28;20065;-47
2024/04/03 11:30:32;;;;;;;1.67;1.58;;;;;;;12.82;77.85;98144.72;4986202;28;20157;-47
2024/04/03 11:32:58;;;;;;;8.27;2.10;;;;;;;12.93;77.84;98143.41;4985771;28;20057;-49
2024/04/03 11:35:24;;;;;;;2.20;2.10;;;;;;;13.07;77.05;98145.41;4986939;28;20046;-46
2024/04/03 11:37:51;;;;;;;2.60;2.40;;;;;;;13.04;77.58;98154.16;4967161;28;20054;-46